sensor_id;sensor_type;location;lat;lon;timestamp;P1;durP1;ratioP1;P2;durP2;ratioP2
15624;SDS011;7912;51.376;6.126;2023-02-18T00:07:35;12.23;;;11.03;;
15624;SDS011;7912;51.376;6.126;2023-02-18T00:10:05;11.77;;;10.63;;
15624;SDS011;7912;51.376;6.126;2023-02-18T00:12:37;11.77;;;10.57;;
15624;SDS011;7912;51.376;6.126;2023-02-18T00:15:04;12.37;;;11.07;;
15624;SDS011;7912;51.376;6.126;2023-02-18T00:17:32;12.53;;;11.23;;
15624;SDS011;7912;51.376;6.126;2023-02-18T00:19:59;13.17;;;11.87;;
15624;SDS011;7912;51.376;6.126;2023-02-18T00:22:27;11.97;;;10.77;;
15624;SDS011;7912;51.376;6.126;2023-02-18T00:24:54;11.93;;;10.53;;
15624;SDS011;7912;51.376;6.126;2023-02-18T00:27:21;12.63;;;11.43;;
15624;SDS011;7912;51.376;6.126;2023-02-18T00:29:48;12.23;;;11.03;;
15624;SDS011;7912;51.376;6.126;2023-02-18T00:32:16;13.07;;;11.67;;
15624;SDS011;7912;51.376;6.126;2023-02-18T00:34:43;12.77;;;11.43;;
15624;SDS011;7912;51.376;6.126;2023-02-18T00:37:10;13.33;;;11.93;;
15624;SDS011;7912;51.376;6.126;2023-02-18T00:39:37;12.60;;;11.40;;
15624;SDS011;7912;51.376;6.126;2023-02-18T00:42:04;12.37;;;11.10;;
15624;SDS011;7912;51.376;6.126;2023-02-18T00:47:17;12.20;;;11.00;;
15624;SDS011;7912;51.376;6.126;2023-02-18T00:49:45;11.80;;;10.57;;
15624;SDS011;7912;51.376;6.126;2023-02-18T00:52:12;12.23;;;11.03;;
15624;SDS011;7912;51.376;6.126;2023-02-18T00:54:39;11.83;;;10.63;;
15624;SDS011;7912;51.376;6.126;2023-02-18T00:57:07;11.70;;;10.60;;
15624;SDS011;7912;51.376;6.126;2023-02-18T00:59:34;11.40;;;10.23;;
15624;SDS011;7912;51.376;6.126;2023-02-18T01:02:01;12.13;;;10.73;;
15624;SDS011;7912;51.376;6.126;2023-02-18T01:04:28;11.40;;;10.10;;
15624;SDS011;7912;51.376;6.126;2023-02-18T01:06:55;11.27;;;10.17;;
15624;SDS011;7912;51.376;6.126;2023-02-18T01:09:22;11.33;;;10.23;;
15624;SDS011;7912;51.376;6.126;2023-02-18T01:11:51;10.63;;;9.63;;
15624;SDS011;7912;51.376;6.126;2023-02-18T01:14:18;10.07;;;9.10;;
15624;SDS011;7912;51.376;6.126;2023-02-18T01:16:45;11.13;;;9.93;;
15624;SDS011;7912;51.376;6.126;2023-02-18T01:19:12;10.23;;;9.23;;
15624;SDS011;7912;51.376;6.126;2023-02-18T01:21:40;9.70;;;8.80;;
15624;SDS011;7912;51.376;6.126;2023-02-18T01:24:07;9.53;;;8.73;;
15624;SDS011;7912;51.376;6.126;2023-02-18T01:26:34;10.27;;;9.27;;
15624;SDS011;7912;51.376;6.126;2023-02-18T01:29:02;10.23;;;9.23;;
15624;SDS011;7912;51.376;6.126;2023-02-18T01:31:29;10.73;;;9.73;;
15624;SDS011;7912;51.376;6.126;2023-02-18T01:33:56;9.60;;;8.60;;
15624;SDS011;7912;51.376;6.126;2023-02-18T01:36:23;9.83;;;8.83;;
15624;SDS011;7912;51.376;6.126;2023-02-18T01:38:51;9.40;;;8.50;;
15624;SDS011;7912;51.376;6.126;2023-02-18T01:41:20;9.90;;;9.00;;
15624;SDS011;7912;51.376;6.126;2023-02-18T01:43:48;10.37;;;8.57;;
15624;SDS011;7912;51.376;6.126;2023-02-18T01:46:54;9.30;;;8.40;;
15624;SDS011;7912;51.376;6.126;2023-02-18T01:49:27;9.17;;;8.30;;
15624;SDS011;7912;51.376;6.126;2023-02-18T01:52:01;9.43;;;8.53;;
15624;SDS011;7912;51.376;6.126;2023-02-18T01:54:42;9.33;;;8.27;;
15624;SDS011;7912;51.376;6.126;2023-02-18T01:57:19;9.33;;;8.43;;
15624;SDS011;7912;51.376;6.126;2023-02-18T01:59:53;9.50;;;8.60;;
15624;SDS011;7912;51.376;6.126;2023-02-18T02:02:26;9.20;;;8.30;;
15624;SDS011;7912;51.376;6.126;2023-02-18T02:04:55;8.87;;;8.00;;
15624;SDS011;7912;51.376;6.126;2023-02-18T02:07:23;9.60;;;8.70;;
15624;SDS011;7912;51.376;6.126;2023-02-18T02:09:53;10.47;;;8.63;;
15624;SDS011;7912;51.376;6.126;2023-02-18T02:15:47;9.13;;;8.27;;
15624;SDS011;7912;51.376;6.126;2023-02-18T02:19:03;10.10;;;9.10;;
15624;SDS011;7912;51.376;6.126;2023-02-18T02:25:14;9.67;;;8.73;;
15624;SDS011;7912;51.376;6.126;2023-02-18T02:42:08;10.10;;;8.97;;
15624;SDS011;7912;51.376;6.126;2023-02-18T02:45:48;9.80;;;8.80;;
15624;SDS011;7912;51.376;6.126;2023-02-18T02:48:53;9.57;;;8.57;;
15624;SDS011;7912;51.376;6.126;2023-02-18T02:54:43;10.13;;;9.03;;
15624;SDS011;7912;51.376;6.126;2023-02-18T02:59:38;10.63;;;9.50;;
15624;SDS011;7912;51.376;6.126;2023-02-18T03:08:06;11.33;;;9.40;;
15624;SDS011;7912;51.376;6.126;2023-02-18T03:13:39;9.73;;;8.73;;
15624;SDS011;7912;51.376;6.126;2023-02-18T03:16:23;10.07;;;8.50;;
15624;SDS011;7912;51.376;6.126;2023-02-18T03:22:19;10.10;;;8.10;;
15624;SDS011;7912;51.376;6.126;2023-02-18T03:24:53;9.57;;;7.67;;
15624;SDS011;7912;51.376;6.126;2023-02-18T03:30:04;7.83;;;7.10;;
15624;SDS011;7912;51.376;6.126;2023-02-18T03:32:39;7.57;;;6.77;;
15624;SDS011;7912;51.376;6.126;2023-02-18T03:35:08;7.30;;;6.60;;
15624;SDS011;7912;51.376;6.126;2023-02-18T03:37:44;9.10;;;6.93;;
15624;SDS011;7912;51.376;6.126;2023-02-18T03:40:19;6.73;;;6.03;;
15624;SDS011;7912;51.376;6.126;2023-02-18T03:42:47;6.10;;;5.50;;
15624;SDS011;7912;51.376;6.126;2023-02-18T03:45:14;6.03;;;5.43;;
15624;SDS011;7912;51.376;6.126;2023-02-18T03:47:41;5.50;;;5.00;;
15624;SDS011;7912;51.376;6.126;2023-02-18T03:50:08;5.60;;;5.00;;
15624;SDS011;7912;51.376;6.126;2023-02-18T03:55:21;5.00;;;4.50;;
15624;SDS011;7912;51.376;6.126;2023-02-18T03:57:49;4.73;;;4.33;;
15624;SDS011;7912;51.376;6.126;2023-02-18T04:00:16;4.40;;;3.90;;
15624;SDS011;7912;51.376;6.126;2023-02-18T04:02:44;3.90;;;3.60;;
15624;SDS011;7912;51.376;6.126;2023-02-18T04:05:11;4.03;;;3.60;;
15624;SDS011;7912;51.376;6.126;2023-02-18T04:07:42;3.40;;;3.10;;
15624;SDS011;7912;51.376;6.126;2023-02-18T04:10:09;3.23;;;2.93;;
15624;SDS011;7912;51.376;6.126;2023-02-18T04:12:37;3.40;;;3.10;;
15624;SDS011;7912;51.376;6.126;2023-02-18T04:15:04;3.17;;;2.87;;
15624;SDS011;7912;51.376;6.126;2023-02-18T04:17:32;2.83;;;2.57;;
15624;SDS011;7912;51.376;6.126;2023-02-18T04:20:00;2.50;;;2.30;;
15624;SDS011;7912;51.376;6.126;2023-02-18T04:22:30;2.43;;;2.17;;
15624;SDS011;7912;51.376;6.126;2023-02-18T04:24:57;2.90;;;2.00;;
15624;SDS011;7912;51.376;6.126;2023-02-18T04:27:25;2.40;;;1.97;;
15624;SDS011;7912;51.376;6.126;2023-02-18T04:29:53;2.27;;;2.07;;
15624;SDS011;7912;51.376;6.126;2023-02-18T04:32:20;1.80;;;1.70;;
15624;SDS011;7912;51.376;6.126;2023-02-18T04:34:47;1.83;;;1.73;;
15624;SDS011;7912;51.376;6.126;2023-02-18T04:37:14;2.20;;;2.00;;
15624;SDS011;7912;51.376;6.126;2023-02-18T04:39:41;1.60;;;1.50;;
15624;SDS011;7912;51.376;6.126;2023-02-18T04:42:09;1.67;;;1.57;;
15624;SDS011;7912;51.376;6.126;2023-02-18T04:44:36;1.63;;;1.53;;
15624;SDS011;7912;51.376;6.126;2023-02-18T04:47:04;1.67;;;1.57;;
15624;SDS011;7912;51.376;6.126;2023-02-18T04:49:32;1.70;;;1.60;;
15624;SDS011;7912;51.376;6.126;2023-02-18T04:52:00;1.50;;;1.40;;
15624;SDS011;7912;51.376;6.126;2023-02-18T04:54:27;1.73;;;1.47;;
15624;SDS011;7912;51.376;6.126;2023-02-18T04:56:55;1.63;;;1.33;;
15624;SDS011;7912;51.376;6.126;2023-02-18T05:02:26;1.43;;;1.33;;
15624;SDS011;7912;51.376;6.126;2023-02-18T05:04:54;1.63;;;1.50;;
15624;SDS011;7912;51.376;6.126;2023-02-18T05:07:21;1.63;;;1.53;;
15624;SDS011;7912;51.376;6.126;2023-02-18T05:09:48;1.50;;;1.40;;
15624;SDS011;7912;51.376;6.126;2023-02-18T05:12:15;2.00;;;1.60;;
15624;SDS011;7912;51.376;6.126;2023-02-18T05:14:42;1.90;;;1.60;;
15624;SDS011;7912;51.376;6.126;2023-02-18T05:17:10;1.60;;;1.40;;
15624;SDS011;7912;51.376;6.126;2023-02-18T05:19:37;1.53;;;1.40;;
15624;SDS011;7912;51.376;6.126;2023-02-18T05:22:04;1.73;;;1.57;;
15624;SDS011;7912;51.376;6.126;2023-02-18T05:24:31;1.70;;;1.60;;
15624;SDS011;7912;51.376;6.126;2023-02-18T05:26:59;1.80;;;1.50;;
15624;SDS011;7912;51.376;6.126;2023-02-18T05:29:26;1.70;;;1.40;;
15624;SDS011;7912;51.376;6.126;2023-02-18T05:31:53;1.50;;;1.40;;
15624;SDS011;7912;51.376;6.126;2023-02-18T05:34:20;1.70;;;1.60;;
15624;SDS011;7912;51.376;6.126;2023-02-18T05:36:48;2.20;;;2.00;;
15624;SDS011;7912;51.376;6.126;2023-02-18T05:39:15;2.13;;;1.73;;
15624;SDS011;7912;51.376;6.126;2023-02-18T05:41:42;2.03;;;1.70;;
15624;SDS011;7912;51.376;6.126;2023-02-18T05:44:09;3.03;;;2.20;;
15624;SDS011;7912;51.376;6.126;2023-02-18T05:46:56;3.17;;;2.20;;
15624;SDS011;7912;51.376;6.126;2023-02-18T05:49:37;2.23;;;1.73;;
15624;SDS011;7912;51.376;6.126;2023-02-18T05:52:07;2.50;;;2.23;;
15624;SDS011;7912;51.376;6.126;2023-02-18T05:54:36;1.90;;;1.70;;
15624;SDS011;7912;51.376;6.126;2023-02-18T05:57:04;2.00;;;1.80;;
15624;SDS011;7912;51.376;6.126;2023-02-18T05:59:31;2.57;;;2.03;;
15624;SDS011;7912;51.376;6.126;2023-02-18T06:01:59;2.03;;;1.80;;
15624;SDS011;7912;51.376;6.126;2023-02-18T06:04:26;1.93;;;1.73;;
15624;SDS011;7912;51.376;6.126;2023-02-18T06:06:54;2.53;;;2.00;;
15624;SDS011;7912;51.376;6.126;2023-02-18T06:09:21;2.37;;;1.70;;
15624;SDS011;7912;51.376;6.126;2023-02-18T06:11:48;2.40;;;2.20;;
15624;SDS011;7912;51.376;6.126;2023-02-18T06:14:15;1.70;;;1.60;;
15624;SDS011;7912;51.376;6.126;2023-02-18T06:16:43;2.03;;;1.83;;
15624;SDS011;7912;51.376;6.126;2023-02-18T06:19:11;2.03;;;1.80;;
15624;SDS011;7912;51.376;6.126;2023-02-18T06:21:38;2.13;;;1.80;;
15624;SDS011;7912;51.376;6.126;2023-02-18T06:24:05;1.93;;;1.73;;
15624;SDS011;7912;51.376;6.126;2023-02-18T06:26:33;2.00;;;1.80;;
15624;SDS011;7912;51.376;6.126;2023-02-18T06:29:00;2.47;;;2.27;;
15624;SDS011;7912;51.376;6.126;2023-02-18T06:31:27;2.70;;;2.27;;
15624;SDS011;7912;51.376;6.126;2023-02-18T06:33:55;2.93;;;2.13;;
15624;SDS011;7912;51.376;6.126;2023-02-18T06:36:22;2.00;;;1.90;;
15624;SDS011;7912;51.376;6.126;2023-02-18T06:38:50;2.20;;;2.00;;
15624;SDS011;7912;51.376;6.126;2023-02-18T06:41:19;2.20;;;2.00;;
15624;SDS011;7912;51.376;6.126;2023-02-18T06:43:46;2.23;;;2.03;;
15624;SDS011;7912;51.376;6.126;2023-02-18T06:46:13;2.23;;;1.93;;
15624;SDS011;7912;51.376;6.126;2023-02-18T06:48:41;2.37;;;2.10;;
15624;SDS011;7912;51.376;6.126;2023-02-18T06:51:08;3.07;;;2.43;;
15624;SDS011;7912;51.376;6.126;2023-02-18T06:53:35;2.57;;;2.10;;
15624;SDS011;7912;51.376;6.126;2023-02-18T06:56:02;2.37;;;2.17;;
15624;SDS011;7912;51.376;6.126;2023-02-18T06:58:30;2.63;;;2.20;;
15624;SDS011;7912;51.376;6.126;2023-02-18T07:00:57;2.33;;;2.10;;
15624;SDS011;7912;51.376;6.126;2023-02-18T07:03:25;2.10;;;1.93;;
15624;SDS011;7912;51.376;6.126;2023-02-18T07:05:52;2.77;;;2.10;;
15624;SDS011;7912;51.376;6.126;2023-02-18T07:08:19;2.57;;;2.37;;
15624;SDS011;7912;51.376;6.126;2023-02-18T07:10:47;2.70;;;2.30;;
15624;SDS011;7912;51.376;6.126;2023-02-18T07:13:14;2.33;;;2.13;;
15624;SDS011;7912;51.376;6.126;2023-02-18T07:15:42;2.10;;;1.90;;
15624;SDS011;7912;51.376;6.126;2023-02-18T07:18:09;1.70;;;1.60;;
15624;SDS011;7912;51.376;6.126;2023-02-18T07:20:36;1.80;;;1.63;;
15624;SDS011;7912;51.376;6.126;2023-02-18T07:23:04;2.90;;;1.60;;
15624;SDS011;7912;51.376;6.126;2023-02-18T07:25:31;2.53;;;1.80;;
15624;SDS011;7912;51.376;6.126;2023-02-18T07:27:58;2.20;;;2.00;;
15624;SDS011;7912;51.376;6.126;2023-02-18T07:30:26;2.23;;;1.77;;
15624;SDS011;7912;51.376;6.126;2023-02-18T07:37:04;1.87;;;1.67;;
15624;SDS011;7912;51.376;6.126;2023-02-18T07:39:35;1.80;;;1.70;;
15624;SDS011;7912;51.376;6.126;2023-02-18T07:42:05;1.73;;;1.63;;
15624;SDS011;7912;51.376;6.126;2023-02-18T07:44:34;2.20;;;2.00;;
15624;SDS011;7912;51.376;6.126;2023-02-18T07:47:03;2.10;;;1.90;;
15624;SDS011;7912;51.376;6.126;2023-02-18T07:49:33;2.50;;;1.80;;
15624;SDS011;7912;51.376;6.126;2023-02-18T07:52:00;2.90;;;2.30;;
15624;SDS011;7912;51.376;6.126;2023-02-18T07:54:30;2.10;;;1.77;;
15624;SDS011;7912;51.376;6.126;2023-02-18T07:56:58;3.17;;;2.07;;
15624;SDS011;7912;51.376;6.126;2023-02-18T07:59:25;2.97;;;1.87;;
15624;SDS011;7912;51.376;6.126;2023-02-18T08:01:52;5.23;;;2.23;;
15624;SDS011;7912;51.376;6.126;2023-02-18T08:04:20;3.50;;;2.00;;
15624;SDS011;7912;51.376;6.126;2023-02-18T08:13:48;7.53;;;2.53;;
15624;SDS011;7912;51.376;6.126;2023-02-18T08:16:17;8.20;;;2.93;;
15624;SDS011;7912;51.376;6.126;2023-02-18T08:18:47;4.80;;;2.40;;
15624;SDS011;7912;51.376;6.126;2023-02-18T08:25:16;6.50;;;2.73;;
15624;SDS011;7912;51.376;6.126;2023-02-18T08:27:55;5.13;;;2.37;;
15624;SDS011;7912;51.376;6.126;2023-02-18T08:30:22;6.70;;;2.77;;
15624;SDS011;7912;51.376;6.126;2023-02-18T08:32:51;6.50;;;2.20;;
15624;SDS011;7912;51.376;6.126;2023-02-18T08:35:19;6.93;;;2.57;;
15624;SDS011;7912;51.376;6.126;2023-02-18T08:37:46;6.57;;;2.50;;
15624;SDS011;7912;51.376;6.126;2023-02-18T08:40:19;5.67;;;2.20;;
15624;SDS011;7912;51.376;6.126;2023-02-18T08:42:50;5.73;;;2.17;;
15624;SDS011;7912;51.376;6.126;2023-02-18T08:45:17;5.93;;;2.50;;
15624;SDS011;7912;51.376;6.126;2023-02-18T08:47:45;6.30;;;2.40;;
15624;SDS011;7912;51.376;6.126;2023-02-18T08:50:32;4.70;;;2.50;;
15624;SDS011;7912;51.376;6.126;2023-02-18T08:53:00;8.43;;;2.30;;
15624;SDS011;7912;51.376;6.126;2023-02-18T08:55:29;4.10;;;2.30;;
15624;SDS011;7912;51.376;6.126;2023-02-18T08:57:59;7.70;;;2.53;;
15624;SDS011;7912;51.376;6.126;2023-02-18T09:00:27;6.20;;;2.43;;
15624;SDS011;7912;51.376;6.126;2023-02-18T09:02:54;8.23;;;2.80;;
15624;SDS011;7912;51.376;6.126;2023-02-18T09:05:25;5.53;;;2.60;;
15624;SDS011;7912;51.376;6.126;2023-02-18T09:07:53;6.20;;;3.07;;
15624;SDS011;7912;51.376;6.126;2023-02-18T09:10:21;8.10;;;3.20;;
15624;SDS011;7912;51.376;6.126;2023-02-18T09:12:49;8.33;;;3.00;;
15624;SDS011;7912;51.376;6.126;2023-02-18T09:15:16;9.93;;;3.23;;
15624;SDS011;7912;51.376;6.126;2023-02-18T09:17:44;6.43;;;2.97;;
15624;SDS011;7912;51.376;6.126;2023-02-18T09:20:17;5.87;;;2.67;;
15624;SDS011;7912;51.376;6.126;2023-02-18T09:22:45;7.77;;;2.93;;
15624;SDS011;7912;51.376;6.126;2023-02-18T09:25:12;7.27;;;2.90;;
15624;SDS011;7912;51.376;6.126;2023-02-18T09:27:40;7.63;;;2.70;;
15624;SDS011;7912;51.376;6.126;2023-02-18T09:30:08;7.60;;;2.97;;
15624;SDS011;7912;51.376;6.126;2023-02-18T09:32:36;7.57;;;2.70;;
15624;SDS011;7912;51.376;6.126;2023-02-18T09:35:03;8.97;;;2.70;;
15624;SDS011;7912;51.376;6.126;2023-02-18T09:41:43;8.93;;;3.23;;
15624;SDS011;7912;51.376;6.126;2023-02-18T09:47:00;7.53;;;2.70;;
15624;SDS011;7912;51.376;6.126;2023-02-18T09:49:52;9.23;;;2.90;;
15624;SDS011;7912;51.376;6.126;2023-02-18T09:52:32;6.10;;;2.37;;
15624;SDS011;7912;51.376;6.126;2023-02-18T09:55:17;7.57;;;2.73;;
15624;SDS011;7912;51.376;6.126;2023-02-18T09:57:52;6.47;;;2.43;;
15624;SDS011;7912;51.376;6.126;2023-02-18T10:00:30;6.93;;;2.60;;
15624;SDS011;7912;51.376;6.126;2023-02-18T10:03:21;7.60;;;2.60;;
15624;SDS011;7912;51.376;6.126;2023-02-18T10:08:41;6.03;;;2.67;;
15624;SDS011;7912;51.376;6.126;2023-02-18T10:11:18;5.40;;;2.23;;
15624;SDS011;7912;51.376;6.126;2023-02-18T10:13:54;5.73;;;2.63;;
15624;SDS011;7912;51.376;6.126;2023-02-18T10:16:23;8.10;;;2.20;;
15624;SDS011;7912;51.376;6.126;2023-02-18T10:18:58;6.43;;;2.47;;
15624;SDS011;7912;51.376;6.126;2023-02-18T10:21:35;4.80;;;2.77;;
15624;SDS011;7912;51.376;6.126;2023-02-18T10:24:04;5.17;;;2.47;;
15624;SDS011;7912;51.376;6.126;2023-02-18T10:27:00;7.00;;;2.93;;
15624;SDS011;7912;51.376;6.126;2023-02-18T10:29:32;5.67;;;2.40;;
15624;SDS011;7912;51.376;6.126;2023-02-18T10:32:06;7.37;;;2.97;;
15624;SDS011;7912;51.376;6.126;2023-02-18T10:43:58;6.53;;;3.10;;
15624;SDS011;7912;51.376;6.126;2023-02-18T10:46:58;6.93;;;3.10;;
15624;SDS011;7912;51.376;6.126;2023-02-18T10:52:32;6.80;;;2.83;;
15624;SDS011;7912;51.376;6.126;2023-02-18T10:55:14;5.50;;;2.80;;
15624;SDS011;7912;51.376;6.126;2023-02-18T10:57:45;6.60;;;2.90;;
15624;SDS011;7912;51.376;6.126;2023-02-18T11:00:18;6.77;;;3.10;;
15624;SDS011;7912;51.376;6.126;2023-02-18T11:03:03;6.10;;;3.13;;
15624;SDS011;7912;51.376;6.126;2023-02-18T11:05:44;8.03;;;2.90;;
15624;SDS011;7912;51.376;6.126;2023-02-18T11:08:16;6.10;;;2.67;;
15624;SDS011;7912;51.376;6.126;2023-02-18T11:10:52;5.90;;;2.67;;
15624;SDS011;7912;51.376;6.126;2023-02-18T11:13:25;5.20;;;2.77;;
15624;SDS011;7912;51.376;6.126;2023-02-18T11:15:58;7.13;;;2.97;;
15624;SDS011;7912;51.376;6.126;2023-02-18T11:18:40;7.10;;;2.93;;
15624;SDS011;7912;51.376;6.126;2023-02-18T11:21:34;6.13;;;2.80;;
15624;SDS011;7912;51.376;6.126;2023-02-18T11:24:14;5.53;;;2.70;;
15624;SDS011;7912;51.376;6.126;2023-02-18T11:26:42;4.40;;;2.70;;
15624;SDS011;7912;51.376;6.126;2023-02-18T11:29:20;7.43;;;2.83;;
15624;SDS011;7912;51.376;6.126;2023-02-18T11:31:51;6.23;;;2.80;;
15624;SDS011;7912;51.376;6.126;2023-02-18T11:34:26;4.90;;;2.97;;
15624;SDS011;7912;51.376;6.126;2023-02-18T11:43:17;4.37;;;2.67;;
15624;SDS011;7912;51.376;6.126;2023-02-18T11:45:50;3.83;;;2.73;;
15624;SDS011;7912;51.376;6.126;2023-02-18T11:48:43;5.20;;;2.80;;
15624;SDS011;7912;51.376;6.126;2023-02-18T11:56:57;4.23;;;2.90;;
15624;SDS011;7912;51.376;6.126;2023-02-18T11:59:33;7.73;;;3.10;;
15624;SDS011;7912;51.376;6.126;2023-02-18T12:05:08;5.20;;;2.80;;
15624;SDS011;7912;51.376;6.126;2023-02-18T12:07:47;6.30;;;3.10;;
15624;SDS011;7912;51.376;6.126;2023-02-18T12:10:28;4.53;;;3.17;;
15624;SDS011;7912;51.376;6.126;2023-02-18T12:19:05;6.07;;;3.40;;
15624;SDS011;7912;51.376;6.126;2023-02-18T12:22:25;6.03;;;3.33;;
15624;SDS011;7912;51.376;6.126;2023-02-18T12:28:05;5.60;;;3.17;;
15624;SDS011;7912;51.376;6.126;2023-02-18T12:31:03;5.30;;;3.23;;
15624;SDS011;7912;51.376;6.126;2023-02-18T12:39:54;3.90;;;3.23;;
15624;SDS011;7912;51.376;6.126;2023-02-18T12:42:50;5.63;;;3.67;;
15624;SDS011;7912;51.376;6.126;2023-02-18T12:46:20;5.60;;;3.40;;
15624;SDS011;7912;51.376;6.126;2023-02-18T12:49:03;6.70;;;4.10;;
15624;SDS011;7912;51.376;6.126;2023-02-18T12:51:56;6.80;;;3.80;;
15624;SDS011;7912;51.376;6.126;2023-02-18T12:57:53;6.83;;;4.50;;
15624;SDS011;7912;51.376;6.126;2023-02-18T13:00:54;5.77;;;4.53;;
15624;SDS011;7912;51.376;6.126;2023-02-18T13:06:26;11.97;;;5.97;;
15624;SDS011;7912;51.376;6.126;2023-02-18T13:13:39;9.30;;;6.03;;
15624;SDS011;7912;51.376;6.126;2023-02-18T13:16:43;9.30;;;6.80;;
15624;SDS011;7912;51.376;6.126;2023-02-18T13:19:28;8.57;;;6.70;;
15624;SDS011;7912;51.376;6.126;2023-02-18T13:22:26;12.10;;;7.53;;
15624;SDS011;7912;51.376;6.126;2023-02-18T13:24:57;10.60;;;7.43;;
15624;SDS011;7912;51.376;6.126;2023-02-18T13:27:37;12.13;;;7.70;;
15624;SDS011;7912;51.376;6.126;2023-02-18T13:43:40;13.67;;;8.17;;
15624;SDS011;7912;51.376;6.126;2023-02-18T13:49:04;10.13;;;8.43;;
15624;SDS011;7912;51.376;6.126;2023-02-18T13:54:45;11.60;;;8.73;;
15624;SDS011;7912;51.376;6.126;2023-02-18T13:57:24;11.93;;;9.13;;
15624;SDS011;7912;51.376;6.126;2023-02-18T14:00:14;10.67;;;8.87;;
15624;SDS011;7912;51.376;6.126;2023-02-18T14:02:56;11.47;;;8.87;;
15624;SDS011;7912;51.376;6.126;2023-02-18T14:05:46;9.63;;;8.63;;
15624;SDS011;7912;51.376;6.126;2023-02-18T14:08:34;10.40;;;9.20;;
15624;SDS011;7912;51.376;6.126;2023-02-18T14:13:43;11.67;;;9.53;;
15624;SDS011;7912;51.376;6.126;2023-02-18T14:22:42;11.80;;;10.27;;
15624;SDS011;7912;51.376;6.126;2023-02-18T14:25:39;12.47;;;10.33;;
15624;SDS011;7912;51.376;6.126;2023-02-18T14:31:03;11.20;;;9.47;;
15624;SDS011;7912;51.376;6.126;2023-02-18T14:33:40;11.33;;;9.37;;
15624;SDS011;7912;51.376;6.126;2023-02-18T14:36:28;10.60;;;9.43;;
15624;SDS011;7912;51.376;6.126;2023-02-18T14:42:16;10.90;;;9.77;;
15624;SDS011;7912;51.376;6.126;2023-02-18T14:45:54;12.53;;;10.03;;
15624;SDS011;7912;51.376;6.126;2023-02-18T14:51:17;11.13;;;8.87;;
15624;SDS011;7912;51.376;6.126;2023-02-18T14:53:49;11.37;;;9.67;;
15624;SDS011;7912;51.376;6.126;2023-02-18T15:00:41;8.73;;;7.37;;
15624;SDS011;7912;51.376;6.126;2023-02-18T15:03:13;8.77;;;7.93;;
15624;SDS011;7912;51.376;6.126;2023-02-18T15:05:44;9.87;;;8.00;;
15624;SDS011;7912;51.376;6.126;2023-02-18T15:08:23;10.57;;;7.70;;
15624;SDS011;7912;51.376;6.126;2023-02-18T15:11:00;11.00;;;7.33;;
15624;SDS011;7912;51.376;6.126;2023-02-18T15:13:41;11.07;;;7.27;;
15624;SDS011;7912;51.376;6.126;2023-02-18T15:20:22;9.43;;;6.77;;
15624;SDS011;7912;51.376;6.126;2023-02-18T15:27:37;7.47;;;6.10;;
15624;SDS011;7912;51.376;6.126;2023-02-18T15:32:55;8.47;;;6.37;;
15624;SDS011;7912;51.376;6.126;2023-02-18T15:35:27;7.27;;;6.00;;
15624;SDS011;7912;51.376;6.126;2023-02-18T15:37:57;9.50;;;6.20;;
15624;SDS011;7912;51.376;6.126;2023-02-18T15:40:29;8.87;;;5.67;;
15624;SDS011;7912;51.376;6.126;2023-02-18T15:43:23;9.33;;;5.77;;
15624;SDS011;7912;51.376;6.126;2023-02-18T15:45:55;7.43;;;5.57;;
15624;SDS011;7912;51.376;6.126;2023-02-18T15:48:31;7.10;;;5.10;;
15624;SDS011;7912;51.376;6.126;2023-02-18T15:51:11;7.23;;;5.33;;
15624;SDS011;7912;51.376;6.126;2023-02-18T15:53:45;7.93;;;5.50;;
15624;SDS011;7912;51.376;6.126;2023-02-18T15:56:36;10.17;;;5.47;;
15624;SDS011;7912;51.376;6.126;2023-02-18T15:59:15;10.37;;;5.70;;
15624;SDS011;7912;51.376;6.126;2023-02-18T16:02:02;8.93;;;5.47;;
15624;SDS011;7912;51.376;6.126;2023-02-18T16:04:40;7.27;;;5.20;;
15624;SDS011;7912;51.376;6.126;2023-02-18T16:09:47;8.90;;;5.60;;
15624;SDS011;7912;51.376;6.126;2023-02-18T16:12:21;7.63;;;5.40;;
15624;SDS011;7912;51.376;6.126;2023-02-18T16:14:57;9.17;;;5.33;;
15624;SDS011;7912;51.376;6.126;2023-02-18T16:20:54;6.47;;;4.80;;
15624;SDS011;7912;51.376;6.126;2023-02-18T16:23:39;9.60;;;5.53;;
15624;SDS011;7912;51.376;6.126;2023-02-18T16:26:28;7.90;;;5.13;;
15624;SDS011;7912;51.376;6.126;2023-02-18T16:29:13;7.50;;;5.50;;
15624;SDS011;7912;51.376;6.126;2023-02-18T16:31:50;8.50;;;5.17;;
15624;SDS011;7912;51.376;6.126;2023-02-18T16:34:18;9.30;;;5.30;;
15624;SDS011;7912;51.376;6.126;2023-02-18T16:36:45;9.33;;;5.10;;
15624;SDS011;7912;51.376;6.126;2023-02-18T16:39:32;7.23;;;5.30;;
15624;SDS011;7912;51.376;6.126;2023-02-18T16:42:00;6.23;;;4.93;;
15624;SDS011;7912;51.376;6.126;2023-02-18T16:44:28;6.93;;;5.47;;
15624;SDS011;7912;51.376;6.126;2023-02-18T16:46:58;8.93;;;5.57;;
15624;SDS011;7912;51.376;6.126;2023-02-18T16:49:26;6.77;;;5.40;;
15624;SDS011;7912;51.376;6.126;2023-02-18T16:51:56;8.17;;;5.47;;
15624;SDS011;7912;51.376;6.126;2023-02-18T16:54:26;8.93;;;6.23;;
15624;SDS011;7912;51.376;6.126;2023-02-18T16:56:54;11.03;;;6.00;;
15624;SDS011;7912;51.376;6.126;2023-02-18T16:59:21;8.63;;;5.90;;
15624;SDS011;7912;51.376;6.126;2023-02-18T17:01:49;7.40;;;5.43;;
15624;SDS011;7912;51.376;6.126;2023-02-18T17:07:07;6.13;;;5.40;;
15624;SDS011;7912;51.376;6.126;2023-02-18T17:09:36;6.83;;;5.60;;
15624;SDS011;7912;51.376;6.126;2023-02-18T17:12:04;6.23;;;5.63;;
15624;SDS011;7912;51.376;6.126;2023-02-18T17:14:31;6.87;;;5.43;;
15624;SDS011;7912;51.376;6.126;2023-02-18T17:16:59;7.73;;;5.80;;
15624;SDS011;7912;51.376;6.126;2023-02-18T17:19:26;6.80;;;5.37;;
15624;SDS011;7912;51.376;6.126;2023-02-18T17:21:54;6.03;;;5.43;;
15624;SDS011;7912;51.376;6.126;2023-02-18T17:24:21;8.43;;;5.70;;
15624;SDS011;7912;51.376;6.126;2023-02-18T17:26:49;6.07;;;5.40;;
15624;SDS011;7912;51.376;6.126;2023-02-18T17:29:16;5.80;;;5.17;;
15624;SDS011;7912;51.376;6.126;2023-02-18T17:31:44;6.57;;;5.90;;
15624;SDS011;7912;51.376;6.126;2023-02-18T17:34:17;8.27;;;6.00;;
15624;SDS011;7912;51.376;6.126;2023-02-18T17:36:51;5.73;;;5.23;;
15624;SDS011;7912;51.376;6.126;2023-02-18T17:39:19;5.30;;;4.73;;
15624;SDS011;7912;51.376;6.126;2023-02-18T17:41:46;6.63;;;5.90;;
15624;SDS011;7912;51.376;6.126;2023-02-18T17:46:43;5.50;;;5.00;;
15624;SDS011;7912;51.376;6.126;2023-02-18T17:49:11;8.00;;;6.13;;
15624;SDS011;7912;51.376;6.126;2023-02-18T17:51:38;7.40;;;6.70;;
15624;SDS011;7912;51.376;6.126;2023-02-18T17:54:11;8.67;;;6.23;;
15624;SDS011;7912;51.376;6.126;2023-02-18T17:56:41;8.13;;;7.20;;
15624;SDS011;7912;51.376;6.126;2023-02-18T17:59:12;7.67;;;6.97;;
15624;SDS011;7912;51.376;6.126;2023-02-18T18:01:40;7.33;;;6.63;;
15624;SDS011;7912;51.376;6.126;2023-02-18T18:04:12;6.70;;;6.00;;
15624;SDS011;7912;51.376;6.126;2023-02-18T18:06:42;6.53;;;5.93;;
15624;SDS011;7912;51.376;6.126;2023-02-18T18:09:11;6.77;;;6.00;;
15624;SDS011;7912;51.376;6.126;2023-02-18T18:11:39;9.00;;;6.83;;
15624;SDS011;7912;51.376;6.126;2023-02-18T18:14:08;7.20;;;6.60;;
15624;SDS011;7912;51.376;6.126;2023-02-18T18:16:40;7.47;;;6.77;;
15624;SDS011;7912;51.376;6.126;2023-02-18T18:19:07;7.77;;;6.90;;
15624;SDS011;7912;51.376;6.126;2023-02-18T18:24:22;9.07;;;7.83;;
15624;SDS011;7912;51.376;6.126;2023-02-18T18:26:51;8.53;;;7.50;;
15624;SDS011;7912;51.376;6.126;2023-02-18T18:29:18;8.73;;;7.63;;
15624;SDS011;7912;51.376;6.126;2023-02-18T18:31:45;9.57;;;7.73;;
15624;SDS011;7912;51.376;6.126;2023-02-18T18:34:14;11.73;;;8.70;;
15624;SDS011;7912;51.376;6.126;2023-02-18T18:40:10;8.57;;;7.63;;
15624;SDS011;7912;51.376;6.126;2023-02-18T18:42:40;9.40;;;7.20;;
15624;SDS011;7912;51.376;6.126;2023-02-18T18:45:12;9.70;;;7.50;;
15624;SDS011;7912;51.376;6.126;2023-02-18T18:47:59;11.03;;;7.60;;
15624;SDS011;7912;51.376;6.126;2023-02-18T18:50:27;8.93;;;7.13;;
15624;SDS011;7912;51.376;6.126;2023-02-18T18:52:54;8.13;;;6.60;;
15624;SDS011;7912;51.376;6.126;2023-02-18T18:55:24;9.33;;;7.50;;
15624;SDS011;7912;51.376;6.126;2023-02-18T18:58:01;8.90;;;7.07;;